createdAt,value
2023-02-02T00:01:11.660Z,20.87
2023-02-02T00:11:15.907Z,24.43
2023-02-02T00:21:20.240Z,15.17
2023-02-02T00:31:23.444Z,22.83
2023-02-02T00:41:27.762Z,25.27
2023-02-02T00:51:30.561Z,27.17
2023-02-02T01:01:35.488Z,20.37
2023-02-02T01:11:38.549Z,27.73
2023-02-02T01:21:42.976Z,25.40
2023-02-02T01:31:46.563Z,25.93
2023-02-02T01:41:51.262Z,19.30
2023-02-02T01:51:57.874Z,23.53
2023-02-02T02:02:03.768Z,19.87
2023-02-02T02:12:13.558Z,23.17
2023-02-02T02:22:39.136Z,28.63
2023-02-02T02:32:48.537Z,20.10
2023-02-02T02:42:58.730Z,18.40
2023-02-02T02:53:07.011Z,18.47
2023-02-02T03:03:18.155Z,23.83
2023-02-02T03:13:22.590Z,30.47
2023-02-02T03:23:25.803Z,20.97
2023-02-02T03:33:32.032Z,28.03
2023-02-02T03:43:35.144Z,23.80
2023-02-02T03:53:39.504Z,27.77
2023-02-02T04:03:42.585Z,21.93
2023-02-02T04:13:46.945Z,20.63
2023-02-02T04:23:49.926Z,26.67
2023-02-02T04:33:54.851Z,24.33
2023-02-02T04:43:57.828Z,22.50
2023-02-02T04:54:02.285Z,29.33
2023-02-02T05:04:05.585Z,26.80
2023-02-02T05:14:10.036Z,31.67
2023-02-02T05:24:13.509Z,25.87
2023-02-02T05:34:17.845Z,26.00
2023-02-02T05:44:21.004Z,21.23
2023-02-02T05:54:26.350Z,28.37
2023-02-02T06:04:29.736Z,25.17
2023-02-02T06:14:34.059Z,25.70
2023-02-02T06:24:36.843Z,20.60
2023-02-02T06:34:41.040Z,22.53
2023-02-02T06:44:43.817Z,23.93
2023-02-02T06:54:47.944Z,20.57
2023-02-02T07:04:50.895Z,30.30
2023-02-02T07:14:56.407Z,24.03
2023-02-02T07:25:02.949Z,22.10
2023-02-02T07:35:08.954Z,17.70
2023-02-02T07:45:36.223Z,22.60
2023-02-02T07:55:37.688Z,15.03
2023-02-02T08:05:40.709Z,16.13
2023-02-02T08:15:45.685Z,16.30
2023-02-02T08:25:48.778Z,18.47
2023-02-02T08:35:53.108Z,22.03
2023-02-02T08:46:01.634Z,20.97
2023-02-02T08:56:12.191Z,24.17
2023-02-02T09:06:17.845Z,17.23
2023-02-02T09:16:23.303Z,16.60
2023-02-02T09:26:28.192Z,18.90
2023-02-02T09:36:33.611Z,18.87
2023-02-02T09:46:48.730Z,16.87
2023-02-02T09:56:58.051Z,12.40
2023-02-02T10:07:08.783Z,20.88
2023-02-02T10:17:33.044Z,13.03
2023-02-02T10:27:39.406Z,12.10
2023-02-02T10:37:51.466Z,9.80
2023-02-02T10:47:54.358Z,16.90
2023-02-02T10:58:09.716Z,14.77
2023-02-02T11:08:15.398Z,15.43
2023-02-02T11:18:30.224Z,10.87
2023-02-02T11:28:37.294Z,21.83
2023-02-02T11:38:41.984Z,15.23
2023-02-02T11:48:52.026Z,14.27
2023-02-02T11:58:59.253Z,14.60
2023-02-02T12:09:08.362Z,15.90
2023-02-02T12:19:31.053Z,17.90
2023-02-02T12:29:52.978Z,17.87
2023-02-02T12:40:15.640Z,7.80
2023-02-02T12:50:29.917Z,15.70
2023-02-02T13:00:53.662Z,13.77
2023-02-02T13:11:04.917Z,19.57
2023-02-02T13:21:15.288Z,12.47
2023-02-02T13:31:24.528Z,18.77
2023-02-02T13:41:30.757Z,10.90
2023-02-02T13:51:54.892Z,11.33
2023-02-02T14:02:00.703Z,16.47
2023-02-02T14:12:07.990Z,13.23
2023-02-02T14:22:40.665Z,10.70
2023-02-02T14:32:44.083Z,11.57
2023-02-02T14:43:17.569Z,14.33
2023-02-02T14:53:26.177Z,10.70
2023-02-02T15:03:53.960Z,10.23
2023-02-02T15:14:07.455Z,7.33
2023-02-02T15:24:26.124Z,7.67
2023-02-02T15:34:38.950Z,8.90
2023-02-02T15:44:44.136Z,5.27
2023-02-02T15:54:53.339Z,12.47
2023-02-02T16:04:57.921Z,11.35
2023-02-02T16:15:01.504Z,6.03
2023-02-02T16:25:14.268Z,5.73
2023-02-02T16:35:34.719Z,7.10
2023-02-02T16:45:48.057Z,7.13
2023-02-02T16:55:51.974Z,4.47
2023-02-02T17:05:58.746Z,7.80
2023-02-02T17:16:02.853Z,5.83
2023-02-02T17:26:36.215Z,16.27
2023-02-02T17:36:40.783Z,6.23
2023-02-02T17:46:45.435Z,5.97
2023-02-02T17:56:48.633Z,7.93
2023-02-02T18:07:18.202Z,7.30
2023-02-02T18:27:26.393Z,7.50
2023-02-02T18:37:31.723Z,9.53
2023-02-02T18:47:36.102Z,12.93
2023-02-02T18:57:39.251Z,10.43
2023-02-02T19:07:56.813Z,11.43
2023-02-02T19:18:00.103Z,11.73
2023-02-02T19:28:15.254Z,16.40
2023-02-02T19:38:20.855Z,11.50
2023-02-02T19:48:27.354Z,9.70
2023-02-02T19:58:37.568Z,9.10
2023-02-02T20:08:44.474Z,13.53
2023-02-02T20:18:53.987Z,14.33
2023-02-02T20:29:00.274Z,9.33
2023-02-02T20:39:24.013Z,11.23
2023-02-02T20:49:29.260Z,14.23
2023-02-02T20:59:33.007Z,6.70
2023-02-02T21:09:37.636Z,9.40
2023-02-02T21:19:40.774Z,11.73
2023-02-02T21:29:45.293Z,11.43
2023-02-02T21:39:51.221Z,8.27
2023-02-02T21:49:57.961Z,7.90
2023-02-02T22:00:01.966Z,8.87
2023-02-02T22:10:30.220Z,13.30
2023-02-02T22:20:36.725Z,9.80
2023-02-02T22:30:42.482Z,9.73
2023-02-02T22:41:10.035Z,9.50
2023-02-02T22:51:14.942Z,9.23
2023-02-02T23:01:18.200Z,13.17
2023-02-02T23:11:22.710Z,6.97
2023-02-02T23:21:26.029Z,7.97
2023-02-02T23:31:30.645Z,11.37
2023-02-02T23:41:33.777Z,12.00
2023-02-02T23:51:38.890Z,7.47
